Time;durP1;ratioP1;P1;durP2;ratioP2;P2;SDS_P1;SDS_P2;PMS_P1;PMS_P2;Temp;Humidity;BMP_temperature;BMP_pressure;BME280_temperature;BME280_humidity;BME280_pressure;Samples;Min_cycle;Max_cycle;Signal;HPM_P1;HPM_P2
2021/06/24 00:00:05;;;;;;;38.15;12.30;;;;;;;23.28;67.48;94120.34;6088784;23;20018;-84
2021/06/24 00:02:33;;;;;;;38.50;12.43;;;;;;;23.46;67.68;94154.94;6080769;23;20032;-83
2021/06/24 00:04:59;;;;;;;29.13;12.38;;;;;;;23.62;66.85;94156.38;6104939;23;20045;-83
2021/06/24 00:07:24;;;;;;;37.88;12.95;;;;;;;23.51;67.48;94160.81;6112629;23;20006;-83
2021/06/24 00:09:50;;;;;;;34.25;11.57;;;;;;;23.50;67.68;94166.59;6080300;23;20018;-84
2021/06/24 00:12:17;;;;;;;36.03;13.38;;;;;;;23.52;67.62;94166.97;6107869;23;20343;-83
2021/06/24 00:14:43;;;;;;;42.85;12.88;;;;;;;23.38;68.00;94148.63;6108439;23;20014;-83
2021/06/24 00:17:16;;;;;;;39.80;12.45;;;;;;;23.25;68.77;94136.47;6102950;23;20021;-82
2021/06/24 00:19:42;;;;;;;33.80;11.45;;;;;;;23.02;69.12;94116.81;6114366;23;20238;-82
2021/06/24 00:22:07;;;;;;;35.13;11.27;;;;;;;23.08;69.00;94136.94;6109267;23;20006;-83
2021/06/24 00:24:32;;;;;;;43.63;11.55;;;;;;;23.29;68.90;94180.44;6081896;23;20064;-83
2021/06/24 00:27:01;;;;;;;26.42;11.27;;;;;;;23.15;69.61;94150.53;6107659;23;20010;-84
2021/06/24 00:29:27;;;;;;;32.47;10.25;;;;;;;23.04;69.69;94141.47;6106040;23;20014;-83
2021/06/24 00:31:52;;;;;;;32.50;11.25;;;;;;;23.22;69.51;94177.63;6079791;23;20211;-83
2021/06/24 00:34:17;;;;;;;25.75;11.43;;;;;;;23.17;68.59;94148.25;6116954;23;20088;-82
2021/06/24 00:36:43;;;;;;;25.88;11.23;;;;;;;23.33;68.60;94173.19;6109197;23;20010;-83
2021/06/24 00:39:10;;;;;;;25.33;11.07;;;;;;;23.10;67.87;94145.44;6107339;23;20030;-83
2021/06/24 00:41:36;;;;;;;44.63;13.88;;;;;;;23.48;67.24;94180.41;6105724;23;20024;-83
2021/06/24 00:44:04;;;;;;;33.17;11.60;;;;;;;23.19;68.28;94159.47;6107723;23;20022;-83
2021/06/24 00:46:33;;;;;;;37.22;12.68;;;;;;;23.46;67.32;94166.50;6080415;23;20025;-83
2021/06/24 00:48:59;;;;;;;35.38;11.90;;;;;;;23.54;67.36;94184.38;6117920;23;20036;-82
2021/06/24 00:51:27;;;;;;;35.60;12.32;;;;;;;23.39;67.25;94169.06;6107169;23;20443;-82
2021/06/24 00:53:55;;;;;;;35.20;13.63;;;;;;;23.34;68.66;94185.53;6105041;23;20104;-83
2021/06/24 00:56:32;;;;;;;39.75;13.38;;;;;;;23.19;68.65;94159.47;6077765;23;20020;-83
2021/06/24 00:59:00;;;;;;;34.10;14.10;;;;;;;23.32;68.93;94171.63;6056420;23;20367;-82
2021/06/24 01:01:25;;;;;;;31.75;12.60;;;;;;;23.24;68.71;94184.22;6116006;23;20001;-83
2021/06/24 01:03:51;;;;;;;37.53;14.70;;;;;;;23.15;68.93;94180.19;6110109;23;20013;-83
2021/06/24 01:06:17;;;;;;;28.77;12.35;;;;;;;23.09;69.10;94185.09;6025174;23;20086;-83
2021/06/24 01:08:45;;;;;;;31.58;11.38;;;;;;;22.96;69.62;94182.94;6110913;23;20014;-83
2021/06/24 01:11:10;;;;;;;37.30;12.45;;;;;;;23.06;69.31;94176.97;6112473;23;20021;-83
2021/06/24 01:13:37;;;;;;;33.42;11.48;;;;;;;23.03;70.29;94191.13;6062948;23;20033;-83
2021/06/24 01:16:06;;;;;;;31.27;12.50;;;;;;;22.84;70.37;94173.06;6100027;23;20342;-82
2021/06/24 01:18:31;;;;;;;27.38;10.55;;;;;;;23.10;69.53;94191.28;6108307;23;20032;-82
2021/06/24 01:21:00;;;;;;;38.58;11.90;;;;;;;23.09;70.07;94195.09;6135236;23;20029;-82
2021/06/24 01:23:35;;;;;;;36.22;12.32;;;;;;;22.73;71.25;94186.34;6142999;23;20021;-82
2021/06/24 01:26:01;;;;;;;;;;;;;;;22.71;71.76;94185.94;6110581;23;20039;-82
2021/06/24 01:28:26;;;;;;;27.67;12.13;;;;;;;22.53;71.80;94163.19;6136485;23;20286;-82
2021/06/24 01:30:52;;;;;;;38.78;13.88;;;;;;;22.54;72.06;94166.66;6146721;23;20319;-82
2021/06/24 01:33:17;;;;;;;37.40;13.27;;;;;;;22.80;71.63;94186.50;6109197;23;20037;-83
2021/06/24 01:35:46;;;;;;;39.97;13.07;;;;;;;22.53;72.41;94178.59;6140591;23;20105;-83
2021/06/24 01:38:12;;;;;;;28.77;12.98;;;;;;;22.61;72.51;94193.75;6107388;23;20021;-84
2021/06/24 01:40:38;;;;;;;27.23;12.55;;;;;;;22.27;73.44;94171.91;6096153;23;20531;-83
2021/06/24 01:43:04;;;;;;;38.85;13.35;;;;;;;22.47;73.39;94191.56;6147639;23;20061;-82
2021/06/24 01:45:30;;;;;;;34.15;13.85;;;;;;;22.41;73.91;94188.38;6138536;23;20088;-83
2021/06/24 01:47:55;;;;;;;37.90;15.48;;;;;;;22.37;73.87;94195.59;6137051;23;20017;-83
2021/06/24 01:50:22;;;;;;;42.20;16.05;;;;;;;22.18;74.33;94170.56;6140167;23;20725;-82
2021/06/24 01:52:49;;;;;;;36.78;14.85;;;;;;;22.14;74.55;94169.69;6138622;23;20021;-82
2021/06/24 01:55:16;;;;;;;29.77;14.20;;;;;;;22.06;74.38;94152.59;6136416;23;20005;-83
2021/06/24 01:57:42;;;;;;;33.60;14.18;;;;;;;22.14;74.07;94161.63;6139273;23;20002;-83
2021/06/24 02:00:13;;;;;;;35.55;14.15;;;;;;;22.40;74.09;94194.09;6102698;23;20469;-83
2021/06/24 02:02:41;;;;;;;31.88;13.82;;;;;;;22.31;74.53;94185.44;6145432;23;20032;-83
2021/06/24 02:05:07;;;;;;;32.17;13.63;;;;;;;22.24;74.43;94185.28;6145588;23;20014;-83
2021/06/24 02:07:37;;;;;;;26.95;13.98;;;;;;;21.98;75.47;94169.75;6113461;23;20031;-84
2021/06/24 02:10:03;;;;;;;35.78;14.35;;;;;;;22.03;75.11;94159.47;6142194;23;20332;-83
2021/06/24 02:12:32;;;;;;;39.05;14.95;;;;;;;21.99;75.01;94141.69;6109963;23;20021;-83
2021/06/24 02:14:57;;;;;;;27.98;14.23;;;;;;;22.10;75.32;94174.22;6139417;23;20021;-83
2021/06/24 02:17:23;;;;;;;30.48;15.82;;;;;;;21.88;76.05;94168.34;6111362;23;20060;-83
2021/06/24 02:19:48;;;;;;;37.42;16.33;;;;;;;22.01;75.36;94156.34;6139556;23;20064;-83
2021/06/24 02:22:16;;;;;;;36.83;14.13;;;;;;;22.03;75.21;94150.63;6114036;23;20005;-83
2021/06/24 02:24:41;;;;;;;33.03;13.82;;;;;;;22.10;74.39;94139.22;6140653;23;20064;-84
2021/06/24 02:27:07;;;;;;;35.08;14.38;;;;;;;22.13;74.61;94143.91;6141540;23;20025;-83
2021/06/24 02:29:32;;;;;;;31.67;14.00;;;;;;;22.23;73.00;94121.81;6141155;23;20024;-84
2021/06/24 02:31:58;;;;;;;40.00;13.20;;;;;;;22.45;72.11;94148.81;6147918;23;20032;-83
2021/06/24 02:34:24;;;;;;;37.15;14.18;;;;;;;22.68;70.37;94159.66;6147217;23;20005;-83
2021/06/24 02:36:50;;;;;;;41.80;12.60;;;;;;;22.81;68.47;94144.94;6149471;23;20088;-83
2021/06/24 02:39:24;;;;;;;43.95;12.32;;;;;;;23.04;67.77;94150.34;6143161;23;20037;-83
2021/06/24 02:41:52;;;;;;;31.83;12.25;;;;;;;22.99;67.29;94133.69;6143767;23;20018;-83
2021/06/24 02:44:18;;;;;;;35.00;13.02;;;;;;;23.07;67.70;94140.75;6139095;23;20017;-83
2021/06/24 02:46:45;;;;;;;30.23;12.63;;;;;;;22.86;66.08;94109.63;6140349;23;20359;-83
2021/06/24 02:49:12;;;;;;;35.35;11.77;;;;;;;23.07;65.25;94128.06;6150236;23;20035;-83
2021/06/24 02:51:38;;;;;;;37.63;14.63;;;;;;;23.24;67.16;94162.66;6151779;23;20079;-83
2021/06/24 02:54:04;;;;;;;41.08;13.50;;;;;;;22.85;68.53;94118.06;6138257;23;20018;-83
2021/06/24 02:56:33;;;;;;;31.85;13.55;;;;;;;22.91;67.52;94143.56;6113490;23;20018;-84
2021/06/24 02:58:59;;;;;;;30.98;13.13;;;;;;;22.67;69.03;94136.56;6147000;23;20148;-83
2021/06/24 03:01:24;;;;;;;45.47;15.45;;;;;;;22.83;69.15;94155.34;6141452;23;20080;-83
2021/06/24 03:03:50;;;;;;;36.63;13.63;;;;;;;22.73;68.94;94126.28;6153619;23;20590;-83
2021/06/24 03:06:15;;;;;;;30.65;13.68;;;;;;;22.95;68.82;94162.50;6139491;23;20014;-84
2021/06/24 03:08:41;;;;;;;36.95;13.00;;;;;;;22.68;69.26;94148.09;6141661;23;20024;-83
2021/06/24 03:11:06;;;;;;;37.38;13.02;;;;;;;22.83;68.85;94177.69;6140450;23;20453;-83
2021/06/24 03:13:32;;;;;;;41.05;13.85;;;;;;;22.82;68.98;94151.88;6147315;23;20072;-83
2021/06/24 03:15:58;;;;;;;39.80;14.15;;;;;;;23.02;69.13;94159.94;6153078;23;20009;-83
2021/06/24 03:18:26;;;;;;;38.90;14.88;;;;;;;22.89;69.51;94140.44;6115573;23;20377;-83
2021/06/24 03:20:52;;;;;;;30.77;13.80;;;;;;;23.24;69.27;94145.69;6072706;23;20335;-83
2021/06/24 03:23:18;;;;;;;44.10;14.63;;;;;;;23.21;69.48;94152.56;6080785;23;20030;-84
2021/06/24 03:25:44;;;;;;;29.75;18.25;;;;;;;23.51;69.54;94166.19;6083650;23;20086;-83
2021/06/24 03:28:09;;;;;;;39.78;17.40;;;;;;;23.83;68.84;94174.81;6111079;23;20469;-83
2021/06/24 03:30:35;;;;;;;35.10;14.82;;;;;;;24.00;65.74;94141.91;6086677;23;20749;-83
2021/06/24 03:33:01;;;;;;;37.22;13.43;;;;;;;24.32;65.57;94136.97;6114145;23;20089;-84
2021/06/24 03:35:26;;;;;;;32.97;13.77;;;;;;;24.68;64.80;94142.81;6080576;23;20469;-84
2021/06/24 03:37:51;;;;;;;38.58;12.73;;;;;;;24.99;64.11;94150.50;6110823;23;20273;-85
2021/06/24 03:40:18;;;;;;;34.63;12.90;;;;;;;25.40;62.46;94156.72;6115316;23;20046;-83
2021/06/24 03:42:44;;;;;;;34.85;12.77;;;;;;;25.56;61.59;94164.63;6113186;23;20040;-84
2021/06/24 03:45:11;;;;;;;25.58;12.27;;;;;;;25.85;60.53;94160.97;6083958;23;20018;-83
2021/06/24 03:47:36;;;;;;;35.08;13.05;;;;;;;25.96;59.38;94152.91;6110985;23;20048;-84
2021/06/24 03:50:03;;;;;;;40.13;13.35;;;;;;;26.04;59.41;94149.09;6117073;23;20155;-83
2021/06/24 03:52:28;;;;;;;36.20;13.27;;;;;;;26.46;59.29;94186.53;6080910;23;20029;-84
2021/06/24 03:54:53;;;;;;;26.17;12.07;;;;;;;26.71;57.65;94180.06;6113561;23;20436;-83
2021/06/24 03:57:19;;;;;;;33.13;12.02;;;;;;;26.87;56.26;94151.88;6067720;23;20477;-82
2021/06/24 03:59:44;;;;;;;36.78;12.80;;;;;;;27.02;55.81;94159.69;6111348;23;20145;-83
2021/06/24 04:02:10;;;;;;;29.02;11.60;;;;;;;27.55;54.40;94164.44;6107668;23;20017;-84
2021/06/24 04:04:36;;;;;;;27.95;11.65;;;;;;;27.71;53.33;94142.34;6110688;23;20014;-84
2021/06/24 04:07:01;;;;;;;28.00;13.07;;;;;;;27.99;53.19;94164.84;6086885;23;20441;-84
2021/06/24 04:09:27;;;;;;;34.67;13.65;;;;;;;28.25;52.67;94152.78;6108958;23;20385;-83
2021/06/24 04:11:55;;;;;;;26.20;11.90;;;;;;;28.70;52.42;94151.09;6083236;23;20018;-84
2021/06/24 04:14:21;;;;;;;29.98;12.27;;;;;;;29.09;50.27;94150.16;6108380;23;20021;-83
2021/06/24 04:16:46;;;;;;;31.15;11.20;;;;;;;29.56;49.74;94149.50;6117183;23;20017;-84
2021/06/24 04:19:12;;;;;;;37.17;12.73;;;;;;;30.10;47.83;94168.94;6119277;23;20388;-83
2021/06/24 04:21:37;;;;;;;27.98;11.77;;;;;;;30.54;47.62;94168.16;6121771;23;20057;-84
2021/06/24 04:24:04;;;;;;;27.92;12.48;;;;;;;30.76;46.45;94152.28;6082092;23;20013;-83
2021/06/24 04:26:29;;;;;;;28.00;10.93;;;;;;;31.44;45.09;94171.31;6115322;23;20065;-84
2021/06/24 04:28:55;;;;;;;31.65;10.15;;;;;;;31.70;44.34;94176.81;6113362;23;20014;-83
2021/06/24 04:31:21;;;;;;;43.65;12.25;;;;;;;31.91;44.18;94172.97;6110869;23;20081;-84
2021/06/24 04:33:46;;;;;;;39.28;12.63;;;;;;;32.15;43.24;94160.88;6122874;23;20081;-84
2021/06/24 04:36:11;;;;;;;41.85;11.88;;;;;;;32.56;42.05;94140.59;6085238;23;20045;-84
2021/06/24 04:38:46;;;;;;;36.22;12.55;;;;;;;32.56;41.85;94157.78;6108873;23;20026;-87
2021/06/24 04:41:19;;;;;;;34.92;13.05;;;;;;;32.28;42.46;94173.94;6077612;23;20036;-84
2021/06/24 04:43:45;;;;;;;38.70;13.32;;;;;;;31.68;43.27;94137.41;6107961;23;20014;-85
2021/06/24 04:46:13;;;;;;;36.70;13.15;;;;;;;31.58;43.07;94138.34;6110613;23;20013;-85
2021/06/24 04:48:38;;;;;;;26.92;11.90;;;;;;;31.90;43.03;94179.63;6122451;23;20615;-85
2021/06/24 04:51:04;;;;;;;35.22;13.38;;;;;;;32.07;42.66;94167.63;6111016;23;20272;-85
2021/06/24 04:53:29;;;;;;;37.40;13.48;;;;;;;32.19;43.00;94164.31;6084505;23;20029;-86
2021/06/24 04:55:57;;;;;;;34.85;14.07;;;;;;;31.99;43.07;94152.53;6109209;23;20021;-85
2021/06/24 04:58:23;;;;;;;30.92;12.90;;;;;;;32.15;43.10;94160.09;6084193;23;20393;-85
2021/06/24 05:00:48;;;;;;;36.17;14.07;;;;;;;32.37;41.88;94157.75;6083174;23;20002;-86
2021/06/24 05:03:14;;;;;;;31.05;13.50;;;;;;;32.95;41.58;94156.25;6085061;23;20097;-84
2021/06/24 05:05:43;;;;;;;33.03;12.93;;;;;;;33.70;39.97;94167.19;6109033;23;20026;-85
2021/06/24 05:08:17;;;;;;;32.75;11.27;;;;;;;33.77;38.79;94133.38;6083310;23;20345;-85
2021/06/24 05:10:44;;;;;;;31.38;12.27;;;;;;;34.08;39.09;94166.69;6096669;23;20122;-84
2021/06/24 05:13:21;;;;;;;37.05;12.25;;;;;;;34.05;39.45;94171.06;6103497;23;20426;-85
2021/06/24 05:15:46;;;;;;;35.85;13.90;;;;;;;33.64;39.18;94129.72;6086646;23;20349;-83
2021/06/24 05:18:14;;;;;;;33.53;13.48;;;;;;;34.46;38.83;94134.75;6105884;23;20030;-83
2021/06/24 05:20:43;;;;;;;42.25;14.18;;;;;;;35.04;37.47;94173.19;6113005;23;20093;-84
2021/06/24 05:23:08;;;;;;;31.15;12.23;;;;;;;35.18;37.75;94172.81;6111573;23;20017;-83
2021/06/24 05:25:36;;;;;;;35.30;13.35;;;;;;;35.40;36.61;94148.97;6108948;23;20075;-85
2021/06/24 05:28:06;;;;;;;33.72;12.32;;;;;;;35.44;36.87;94152.38;6153409;23;20005;-85
2021/06/24 05:30:32;;;;;;;37.45;12.85;;;;;;;35.52;35.86;94153.72;6135690;23;20014;-85
2021/06/24 05:33:01;;;;;;;43.10;14.45;;;;;;;35.26;36.76;94167.88;6100121;23;20030;-84
2021/06/24 05:35:29;;;;;;;33.45;12.68;;;;;;;35.88;36.13;94180.88;6140246;23;20024;-84
2021/06/24 05:37:59;;;;;;;29.27;13.55;;;;;;;35.60;36.64;94155.03;6117734;23;20018;-84
2021/06/24 05:40:25;;;;;;;37.30;12.75;;;;;;;35.58;37.10;94160.19;6101937;23;20464;-83
2021/06/24 05:42:51;;;;;;;29.58;13.07;;;;;;;35.85;35.74;94178.25;6152320;23;20471;-83
2021/06/24 05:45:17;;;;;;;46.17;13.00;;;;;;;35.72;36.71;94188.50;6141455;23;20017;-83
2021/06/24 05:47:45;;;;;;;26.05;12.20;;;;;;;36.48;35.53;94183.66;6140777;23;20080;-83
2021/06/24 05:50:11;;;;;;;35.08;12.60;;;;;;;36.63;34.97;94186.75;6146806;23;20013;-84
2021/06/24 05:52:37;;;;;;;30.98;12.57;;;;;;;37.05;34.23;94163.16;6111741;23;20020;-84
2021/06/24 05:55:05;;;;;;;28.95;12.30;;;;;;;36.92;34.19;94175.47;6117575;23;20063;-84
2021/06/24 05:57:33;;;;;;;34.67;13.65;;;;;;;36.66;34.78;94161.81;6126362;23;20017;-84
2021/06/24 05:59:59;;;;;;;48.40;12.32;;;;;;;37.32;34.48;94173.63;6139855;23;20021;-84
2021/06/24 06:02:24;;;;;;;42.35;12.88;;;;;;;37.56;33.80;94169.19;6109441;23;20013;-85
2021/06/24 06:04:50;;;;;;;53.92;13.60;;;;;;;37.55;33.99;94169.63;6139999;23;20096;-84
2021/06/24 06:07:15;;;;;;;35.25;11.70;;;;;;;37.77;34.04;94175.88;6151125;23;20352;-85
2021/06/24 06:09:42;;;;;;;33.13;12.55;;;;;;;37.86;34.01;94180.66;6117246;23;20006;-83
2021/06/24 06:12:08;;;;;;;38.13;13.93;;;;;;;38.91;32.84;94147.09;6140740;23;20456;-83
2021/06/24 06:14:33;;;;;;;38.25;13.18;;;;;;;39.67;31.40;94177.22;6144815;23;20508;-83
2021/06/24 06:17:15;;;;;;;;;;;;;;;;;;;;;
2021/06/24 06:19:44;;;;;;;32.60;12.27;;;;;;;39.52;31.31;94173.59;6112701;23;20092;-85
2021/06/24 06:22:28;;;;;;;;;;;;;;;;;;;;;
2021/06/24 06:24:54;;;;;;;45.25;12.65;;;;;;;39.08;30.92;94156.59;6108871;23;20744;-85
2021/06/24 06:27:25;;;;;;;43.17;11.45;;;;;;;39.50;30.32;94161.44;6103945;23;20110;-84
2021/06/24 06:29:51;;;;;;;39.85;12.15;;;;;;;39.90;30.50;94189.59;6093940;23;20034;-84
2021/06/24 06:32:17;;;;;;;32.88;10.82;;;;;;;40.08;30.51;94174.88;6107684;23;20459;-84
2021/06/24 06:34:43;;;;;;;34.22;11.40;;;;;;;40.29;30.10;94182.19;6114546;23;20009;-85
2021/06/24 06:37:11;;;;;;;32.55;11.82;;;;;;;39.84;30.35;94170.09;6083424;23;20010;-85
2021/06/24 06:39:37;;;;;;;41.30;12.50;;;;;;;39.82;30.39;94191.94;6112497;23;20014;-84
2021/06/24 06:42:03;;;;;;;42.58;12.65;;;;;;;40.23;30.17;94192.38;6110104;23;20021;-84
2021/06/24 06:44:28;;;;;;;34.00;11.77;;;;;;;41.02;29.10;94192.75;6113374;23;20104;-83
2021/06/24 06:46:57;;;;;;;34.67;12.35;;;;;;;41.59;28.75;94187.75;6115799;23;20010;-84
2021/06/24 06:49:24;;;;;;;42.35;11.50;;;;;;;42.49;27.58;94173.22;6084116;23;20006;-84
2021/06/24 06:51:50;;;;;;;41.33;13.05;;;;;;;42.71;27.06;94156.88;6111020;23;20429;-84
2021/06/24 06:54:18;;;;;;;37.95;10.90;;;;;;;43.18;26.98;94173.09;6110234;23;20077;-85
2021/06/24 06:56:47;;;;;;;40.08;11.40;;;;;;;44.02;25.77;94180.16;6107842;23;20024;-84
2021/06/24 06:59:14;;;;;;;31.48;11.68;;;;;;;44.12;25.45;94171.63;6082927;23;20396;-85
2021/06/24 07:01:42;;;;;;;40.42;11.50;;;;;;;44.98;24.91;94176.63;6116104;23;20520;-84
2021/06/24 07:04:08;;;;;;;39.13;11.60;;;;;;;45.33;23.58;94181.03;6083729;23;20413;-85
2021/06/24 07:06:38;;;;;;;33.20;11.93;;;;;;;45.30;23.53;94182.81;6108263;23;20107;-85
2021/06/24 07:09:03;;;;;;;36.28;11.95;;;;;;;45.07;23.81;94193.16;6110490;23;20030;-85
2021/06/24 07:11:29;;;;;;;38.05;11.10;;;;;;;45.31;23.95;94173.16;6085491;23;20021;-85
2021/06/24 07:13:54;;;;;;;36.35;12.75;;;;;;;45.91;22.67;94196.09;6105437;23;20018;-84
2021/06/24 07:16:20;;;;;;;43.00;11.70;;;;;;;45.48;22.87;94203.94;6056176;23;20399;-85
2021/06/24 07:18:54;;;;;;;28.23;12.23;;;;;;;44.40;23.93;94187.25;6093708;23;20025;-86
2021/06/24 07:21:31;;;;;;;44.75;11.10;;;;;;;43.98;23.82;94168.50;6139336;23;20026;-91
2021/06/24 07:23:56;;;;;;;33.30;11.55;;;;;;;43.72;24.33;94175.34;6109551;23;20360;-86
2021/06/24 07:26:24;;;;;;;34.75;11.65;;;;;;;43.82;24.53;94194.16;6100465;23;20192;-86
2021/06/24 07:28:50;;;;;;;32.15;12.35;;;;;;;43.15;25.66;94176.84;6110480;23;20061;-86
2021/06/24 07:31:15;;;;;;;39.50;12.68;;;;;;;43.50;24.63;94179.47;6137706;23;20016;-85
2021/06/24 07:33:52;;;;;;;36.75;12.02;;;;;;;43.03;25.28;94182.75;6150177;23;20021;-86
2021/06/24 07:36:18;;;;;;;31.33;11.18;;;;;;;42.87;25.67;94169.41;6109256;23;20026;-85
2021/06/24 07:38:46;;;;;;;26.55;10.57;;;;;;;43.37;24.84;94167.94;6137056;23;20021;-86
2021/06/24 07:41:11;;;;;;;33.08;11.30;;;;;;;43.18;24.91;94178.66;6136309;23;20064;-85
2021/06/24 07:43:58;;;;;;;30.75;10.90;;;;;;;43.37;24.57;94187.41;6053289;23;20047;-86
2021/06/24 07:46:24;;;;;;;27.52;11.02;;;;;;;42.97;24.29;94193.81;6120463;23;20006;-85
2021/06/24 07:48:54;;;;;;;28.52;11.40;;;;;;;43.02;24.36;94186.78;6148010;23;20068;-86
2021/06/24 07:51:19;;;;;;;29.65;11.40;;;;;;;42.90;24.64;94196.25;6129236;23;20097;-85
2021/06/24 07:53:47;;;;;;;38.22;10.18;;;;;;;43.70;24.14;94197.34;6136385;23;20515;-86
2021/06/24 07:56:14;;;;;;;32.33;11.02;;;;;;;44.04;23.56;94180.41;6078922;23;20022;-86
2021/06/24 07:58:47;;;;;;;28.73;10.20;;;;;;;44.68;23.23;94173.47;6125283;23;20500;-87
2021/06/24 08:01:35;;;;;;;34.67;9.95;;;;;;;44.72;23.49;94199.09;6137523;23;20059;-89
2021/06/24 08:04:03;;;;;;;29.40;8.82;;;;;;;45.77;21.46;94191.50;6116584;23;20025;-87
2021/06/24 08:06:29;;;;;;;34.95;10.43;;;;;;;45.97;21.59;94191.28;6109033;23;20014;-86
2021/06/24 08:08:54;;;;;;;29.58;9.48;;;;;;;46.46;21.64;94207.22;6138772;23;20017;-87
2021/06/24 08:11:22;;;;;;;33.08;9.88;;;;;;;46.58;21.47;94176.47;6091050;23;20319;-86
2021/06/24 08:13:47;;;;;;;33.83;9.88;;;;;;;47.25;20.80;94172.09;6111166;23;20013;-86
2021/06/24 08:16:13;;;;;;;29.23;9.82;;;;;;;47.87;20.22;94183.63;6140351;23;20021;-86
2021/06/24 08:18:39;;;;;;;26.25;10.20;;;;;;;47.35;19.85;94190.13;6113996;23;20032;-87
2021/06/24 08:21:04;;;;;;;28.27;9.20;;;;;;;46.97;20.67;94183.41;6123595;23;20360;-86
2021/06/24 08:23:30;;;;;;;25.60;9.07;;;;;;;46.91;19.75;94213.47;6138441;23;20100;-86
2021/06/24 08:26:12;;;;;;;27.02;8.32;;;;;;;46.01;20.40;94206.50;6136727;23;20597;-87
2021/06/24 08:28:37;;;;;;;26.23;7.60;;;;;;;46.40;20.25;94183.34;6136634;23;20464;-86
2021/06/24 08:31:09;;;;;;;24.98;7.82;;;;;;;46.70;20.18;94177.94;6117538;23;20004;-87
2021/06/24 08:33:38;;;;;;;33.28;6.80;;;;;;;46.84;18.93;94202.03;6112452;23;20353;-88
2021/06/24 08:36:05;;;;;;;34.65;7.43;;;;;;;47.09;19.40;94203.72;6136609;23;20132;-87
2021/06/24 08:38:31;;;;;;;29.83;8.15;;;;;;;47.34;18.93;94211.00;6143930;23;20125;-88
2021/06/24 08:41:00;;;;;;;28.60;8.90;;;;;;;47.66;17.88;94205.69;6138792;23;20013;-91
2021/06/24 08:43:26;;;;;;;30.25;7.88;;;;;;;47.12;18.67;94197.09;6142087;23;19998;-87
2021/06/24 08:46:12;;;;;;;23.33;7.85;;;;;;;47.48;18.55;94202.75;6151466;23;20009;-87
2021/06/24 08:48:38;;;;;;;30.85;7.78;;;;;;;46.35;18.02;94196.06;6040438;23;20024;-87
2021/06/24 08:51:06;;;;;;;29.40;7.90;;;;;;;45.36;19.56;94180.78;6104697;23;20006;-86
2021/06/24 08:53:33;;;;;;;27.27;8.57;;;;;;;44.72;20.32;94173.25;6108183;23;20497;-88
2021/06/24 08:56:02;;;;;;;29.20;9.07;;;;;;;43.84;20.95;94163.78;6131769;23;20125;-87
2021/06/24 08:58:35;;;;;;;34.38;8.45;;;;;;;43.85;21.40;94167.34;6148090;23;21990;-88
2021/06/24 09:01:01;;;;;;;33.50;9.18;;;;;;;43.91;22.32;94166.16;6152881;23;20502;-89
2021/06/24 09:03:31;;;;;;;26.77;7.60;;;;;;;43.89;21.73;94160.31;6112269;23;20025;-87
2021/06/24 09:06:04;;;;;;;29.98;7.97;;;;;;;44.49;20.91;94177.91;6094066;23;20018;-89
2021/06/24 09:09:09;;;;;;;28.88;8.18;;;;;;;44.44;20.52;94167.50;6078023;23;20136;-87
2021/06/24 09:11:45;;;;;;;27.17;7.35;;;;;;;44.03;20.56;94165.00;5965453;23;20020;-89
2021/06/24 09:14:17;;;;;;;20.75;7.55;;;;;;;44.28;20.76;94168.19;6117421;23;20525;-86
2021/06/24 09:16:44;;;;;;;26.05;7.28;;;;;;;44.82;20.47;94194.06;6109645;23;20080;-86
2021/06/24 09:19:23;;;;;;;25.48;7.70;;;;;;;44.95;20.13;94185.25;6084354;23;20006;-86
2021/06/24 09:22:02;;;;;;;26.65;8.20;;;;;;;44.72;20.39;94167.69;6121865;23;20073;-88
2021/06/24 09:24:34;;;;;;;25.95;6.90;;;;;;;44.14;20.83;94169.06;6079436;23;20014;-88
2021/06/24 09:27:08;;;;;;;23.98;6.95;;;;;;;43.44;21.20;94175.09;6105316;23;20028;-89
2021/06/24 09:29:34;;;;;;;26.15;7.82;;;;;;;42.82;21.93;94170.88;6000467;23;20102;-87
2021/06/24 09:32:03;;;;;;;19.35;6.80;;;;;;;42.45;21.78;94147.69;6087922;23;20172;-87
2021/06/24 09:34:29;;;;;;;27.50;7.88;;;;;;;41.84;22.46;94178.06;6081167;23;20025;-88
2021/06/24 09:37:01;;;;;;;25.05;7.75;;;;;;;41.32;22.98;94168.63;6112905;23;20347;-89
2021/06/24 09:40:11;;;;;;;;;;;;;;;;;;;;;
2021/06/24 09:42:45;;;;;;;23.58;6.85;;;;;;;41.08;22.96;94158.38;6010358;23;20046;-88
2021/06/24 09:45:13;;;;;;;;;;;;;;;41.36;22.60;94178.28;6016846;23;20131;-85
2021/06/24 09:47:39;;;;;;;25.55;7.13;;;;;;;40.91;22.77;94148.19;6041378;23;19996;-87
2021/06/24 09:50:11;;;;;;;24.10;6.88;;;;;;;40.90;24.24;94141.91;6008433;23;20073;-87
2021/06/24 09:52:38;;;;;;;25.48;7.97;;;;;;;41.29;23.07;94184.22;6085059;23;20453;-86
2021/06/24 09:55:10;;;;;;;26.85;7.18;;;;;;;40.95;22.34;94143.25;6112958;23;20006;-85
2021/06/24 09:57:36;;;;;;;29.58;8.00;;;;;;;41.09;22.72;94164.69;6068822;23;20025;-87
2021/06/24 10:00:23;;;;;;;21.48;7.43;;;;;;;41.16;22.54;94158.00;6110193;23;20330;-85
2021/06/24 10:03:05;;;;;;;23.13;6.82;;;;;;;41.05;22.82;94166.91;6083310;23;20908;-87
2021/06/24 10:05:31;;;;;;;24.95;6.45;;;;;;;40.40;22.65;94149.19;6081411;23;20026;-85
2021/06/24 10:07:57;;;;;;;27.23;6.82;;;;;;;40.10;22.38;94147.50;6108636;23;20097;-85
2021/06/24 10:10:23;;;;;;;30.55;7.10;;;;;;;39.87;24.91;94156.56;6115312;23;20013;-85
2021/06/24 10:12:50;;;;;;;25.75;6.70;;;;;;;39.62;24.13;94133.59;6088017;23;20321;-85
2021/06/24 10:15:17;;;;;;;17.85;5.95;;;;;;;39.59;24.46;94119.91;6110943;23;20032;-86
2021/06/24 10:18:06;;;;;;;;;;;;;;;;;;;;;
2021/06/24 10:20:35;;;;;;;23.23;6.32;;;;;;;38.78;24.37;94130.66;6113381;23;20024;-88
2021/06/24 10:23:01;;;;;;;34.92;6.88;;;;;;;38.52;25.88;94157.06;6085877;23;20022;-91
2021/06/24 10:25:28;;;;;;;19.00;6.13;;;;;;;38.34;25.93;94137.69;6070888;23;20009;-86
2021/06/24 10:27:58;;;;;;;18.35;5.63;;;;;;;38.09;25.16;94156.06;6122729;23;20006;-88
2021/06/24 10:30:24;;;;;;;30.88;6.93;;;;;;;37.98;25.40;94133.63;6112153;23;20057;-86
2021/06/24 10:33:06;;;;;;;23.35;6.10;;;;;;;37.76;25.56;94113.66;6095486;23;20021;-84
2021/06/24 10:35:36;;;;;;;30.75;7.05;;;;;;;37.82;25.49;94133.91;6072100;23;20022;-84
2021/06/24 10:38:03;;;;;;;19.73;6.22;;;;;;;37.97;24.87;94125.81;6072028;23;20433;-87
2021/06/24 10:40:50;;;;;;;18.05;6.50;;;;;;;37.98;24.77;94100.50;6108959;23;20065;-86
2021/06/24 10:43:16;;;;;;;19.98;6.47;;;;;;;38.03;25.46;94104.69;6084236;23;20759;-86
2021/06/24 10:45:44;;;;;;;20.42;6.18;;;;;;;37.71;24.56;94078.38;6087922;23;20360;-88
2021/06/24 10:48:29;;;;;;;23.60;6.82;;;;;;;37.92;25.09;94126.41;6082524;23;20018;-88
2021/06/24 10:51:05;;;;;;;24.00;7.20;;;;;;;37.75;26.29;94128.66;6113507;23;20480;-86
2021/06/24 10:53:39;;;;;;;18.92;6.72;;;;;;;37.69;26.14;94133.22;6062888;23;20018;-85
2021/06/24 10:56:24;;;;;;;19.42;6.90;;;;;;;37.51;27.32;94130.38;6112029;23;20290;-87
2021/06/24 10:58:50;;;;;;;27.17;7.15;;;;;;;37.50;27.03;94112.28;6061386;23;20441;-85
2021/06/24 11:01:40;;;;;;;18.85;5.35;;;;;;;37.70;25.16;94112.69;6099219;23;20002;-86
2021/06/24 11:04:07;;;;;;;31.08;6.55;;;;;;;37.93;24.79;94120.41;6125395;23;20006;-84
2021/06/24 11:06:50;;;;;;;20.17;5.72;;;;;;;38.00;25.07;94116.66;6111275;23;20069;-86
2021/06/24 11:09:19;;;;;;;25.65;5.45;;;;;;;38.01;23.76;94105.16;6112840;23;20040;-83
2021/06/24 11:11:54;;;;;;;24.38;5.25;;;;;;;37.99;22.66;94104.84;6043041;23;20030;-88
2021/06/24 11:14:54;;;;;;;19.40;4.93;;;;;;;38.33;23.30;94119.59;6108087;23;20017;-84
2021/06/24 11:17:45;;;;;;;22.02;4.63;;;;;;;38.14;23.02;94119.59;6115811;23;20337;-84
2021/06/24 11:20:19;;;;;;;29.52;5.32;;;;;;;38.14;23.80;94114.06;6085482;23;20515;-85
2021/06/24 11:22:50;;;;;;;30.10;5.43;;;;;;;38.12;24.13;94116.50;6119619;23;20076;-84
2021/06/24 11:25:20;;;;;;;24.20;4.97;;;;;;;38.20;23.57;94108.69;6084156;23;20006;-83
2021/06/24 11:27:45;;;;;;;21.67;4.88;;;;;;;38.40;22.84;94119.31;6088320;23;20065;-84
2021/06/24 11:30:12;;;;;;;21.48;5.15;;;;;;;38.30;21.82;94120.53;6110848;23;20021;-88